Time;durP1;ratioP1;P1;durP2;ratioP2;P2;SDS_P1;SDS_P2;PMS_P1;PMS_P2;Temp;Humidity;BMP_temperature;BMP_pressure;BME280_temperature;BME280_humidity;BME280_pressure;Samples;Min_cycle;Max_cycle;Signal;HPM_P1;HPM_P2
2021/08/01 00:00:23;;;;;;;9.65;5.63;;;16.30;99.90;;;;;;5113732;28;20399;-75
2021/08/01 00:02:48;;;;;;;11.80;5.72;;;16.30;99.90;;;;;;5088007;28;20036;-75
2021/08/01 00:05:14;;;;;;;13.90;6.55;;;16.40;99.90;;;;;;5081618;28;20044;-75
2021/08/01 00:07:40;;;;;;;12.85;5.85;;;16.30;99.90;;;;;;5078178;28;20484;-76
2021/08/01 00:10:09;;;;;;;10.45;5.50;;;16.30;99.90;;;;;;5110576;28;20546;-76
2021/08/01 00:12:37;;;;;;;11.27;5.68;;;16.40;99.90;;;;;;5111778;28;20471;-76
2021/08/01 00:15:04;;;;;;;15.57;6.03;;;16.40;99.90;;;;;;5095502;28;20050;-76
2021/08/01 00:17:30;;;;;;;11.38;5.80;;;16.40;99.90;;;;;;5083368;28;20106;-76
2021/08/01 00:19:56;;;;;;;11.82;5.82;;;16.40;99.90;;;;;;5113567;28;20452;-75
2021/08/01 00:22:21;;;;;;;12.73;5.53;;;16.30;99.90;;;;;;5109442;28;20039;-75
2021/08/01 00:24:47;;;;;;;10.13;5.38;;;16.30;99.90;;;;;;5094934;28;20039;-76
2021/08/01 00:27:15;;;;;;;11.60;6.00;;;16.30;99.90;;;;;;5061743;28;20085;-75
2021/08/01 00:29:41;;;;;;;13.23;5.85;;;16.30;99.90;;;;;;5095389;28;20036;-75
2021/08/01 00:32:07;;;;;;;11.50;6.20;;;16.30;99.90;;;;;;5112844;28;20036;-75
2021/08/01 00:34:34;;;;;;;10.48;6.38;;;16.30;99.90;;;;;;5094703;28;20104;-75
2021/08/01 00:37:00;;;;;;;20.40;6.78;;;16.30;99.90;;;;;;5113281;28;20036;-75
2021/08/01 00:39:26;;;;;;;11.25;6.00;;;16.30;99.90;;;;;;5094919;28;20027;-76
2021/08/01 00:41:52;;;;;;;14.20;6.82;;;16.30;99.90;;;;;;5084719;28;20096;-75
2021/08/01 00:44:17;;;;;;;17.13;7.32;;;16.30;99.90;;;;;;5087877;28;20041;-76
2021/08/01 00:46:45;;;;;;;13.48;7.10;;;16.30;99.90;;;;;;5112940;28;20553;-75
2021/08/01 00:49:12;;;;;;;11.10;7.57;;;16.30;99.90;;;;;;5112637;28;20039;-75
2021/08/01 00:51:37;;;;;;;12.98;7.90;;;16.30;99.90;;;;;;5090599;28;20028;-76
2021/08/01 00:54:04;;;;;;;13.57;8.15;;;16.30;99.90;;;;;;5113109;28;20038;-75
2021/08/01 00:56:33;;;;;;;15.43;7.07;;;16.20;99.90;;;;;;5112874;28;20063;-75
2021/08/01 00:58:59;;;;;;;11.52;7.50;;;16.20;99.90;;;;;;5091622;28;20118;-76
2021/08/01 01:01:51;;;;;;;13.88;7.95;;;16.20;99.90;;;;;;5095939;28;20143;-75
2021/08/01 01:04:37;;;;;;;20.85;8.13;;;16.20;99.90;;;;;;5102169;28;20122;-75
2021/08/01 01:07:24;;;;;;;15.43;8.50;;;16.20;99.90;;;;;;5112358;28;20043;-75
2021/08/01 01:10:07;;;;;;;12.00;8.13;;;16.10;99.90;;;;;;5104783;28;20061;-75
2021/08/01 01:12:42;;;;;;;13.43;8.13;;;16.20;99.90;;;;;;5112982;28;20043;-76
2021/08/01 01:15:31;;;;;;;16.58;8.48;;;16.20;99.90;;;;;;5106299;28;20056;-75
2021/08/01 01:17:59;;;;;;;11.43;7.85;;;16.20;99.90;;;;;;5111507;28;20407;-79
2021/08/01 01:20:43;;;;;;;12.77;8.73;;;16.20;99.90;;;;;;5094750;28;20055;-79
2021/08/01 01:23:41;;;;;;;14.35;8.40;;;16.20;99.90;;;;;;5112848;28;20051;-79
2021/08/01 01:26:32;;;;;;;13.50;8.40;;;16.20;99.90;;;;;;5081550;28;20476;-79
2021/08/01 01:29:13;;;;;;;14.00;8.25;;;16.20;99.90;;;;;;5061874;28;20044;-79
2021/08/01 01:31:42;;;;;;;12.80;8.23;;;16.10;99.90;;;;;;5094630;28;20036;-79
2021/08/01 01:34:28;;;;;;;18.08;9.65;;;16.10;99.90;;;;;;5093676;28;20044;-79
2021/08/01 01:36:55;;;;;;;17.88;9.07;;;16.10;99.90;;;;;;5091770;28;20051;-79
2021/08/01 01:39:23;;;;;;;13.25;8.85;;;16.10;99.90;;;;;;5077452;28;20032;-79
2021/08/01 01:41:50;;;;;;;14.82;8.98;;;16.10;99.90;;;;;;5077824;28;20106;-79
2021/08/01 01:44:19;;;;;;;17.27;8.90;;;16.10;99.90;;;;;;5112820;28;20472;-79
2021/08/01 01:46:46;;;;;;;15.55;8.70;;;16.10;99.90;;;;;;5086365;28;20035;-79
2021/08/01 01:49:13;;;;;;;12.90;8.40;;;16.10;99.90;;;;;;5083096;28;20048;-79
2021/08/01 01:51:40;;;;;;;13.40;8.48;;;16.10;99.90;;;;;;5090943;28;20116;-79
2021/08/01 01:54:07;;;;;;;15.38;7.90;;;16.10;99.90;;;;;;5074218;28;20032;-79
2021/08/01 01:56:35;;;;;;;12.50;7.45;;;16.00;99.90;;;;;;5097710;28;20040;-79
2021/08/01 01:59:02;;;;;;;12.45;7.40;;;16.10;99.90;;;;;;5095195;28;20058;-79
2021/08/01 02:01:31;;;;;;;11.10;7.85;;;16.00;99.90;;;;;;5114087;28;20035;-79
2021/08/01 02:03:57;;;;;;;11.90;7.45;;;16.00;99.90;;;;;;5096762;28;20487;-79
2021/08/01 02:06:23;;;;;;;16.63;7.60;;;16.00;99.90;;;;;;5077672;28;20040;-79
2021/08/01 02:09:08;;;;;;;12.90;7.13;;;16.00;99.90;;;;;;5113570;28;20067;-79
2021/08/01 02:11:43;;;;;;;10.68;7.00;;;16.00;99.90;;;;;;5098111;28;20059;-79
2021/08/01 02:14:40;;;;;;;12.43;7.15;;;16.00;99.90;;;;;;5095058;28;20088;-79
2021/08/01 02:17:13;;;;;;;10.65;7.07;;;16.00;99.90;;;;;;5084575;28;20073;-79
2021/08/01 02:19:43;;;;;;;11.75;6.57;;;16.00;99.90;;;;;;5113360;28;20031;-79
2021/08/01 02:22:11;;;;;;;13.52;7.47;;;15.90;99.90;;;;;;5101564;28;20035;-79
2021/08/01 02:24:40;;;;;;;12.73;6.72;;;15.90;99.90;;;;;;5099311;28;20039;-79
2021/08/01 02:27:08;;;;;;;10.98;6.80;;;15.90;99.90;;;;;;5098875;28;20039;-79
2021/08/01 02:29:34;;;;;;;9.27;7.05;;;16.00;99.90;;;;;;5093913;28;20047;-79
2021/08/01 02:32:00;;;;;;;11.57;7.13;;;16.00;99.90;;;;;;5064158;28;20039;-79
2021/08/01 02:34:29;;;;;;;14.75;7.93;;;16.00;99.90;;;;;;5105666;28;20031;-79
2021/08/01 02:36:57;;;;;;;14.38;8.23;;;16.00;99.90;;;;;;5091765;28;20419;-79
2021/08/01 02:39:23;;;;;;;15.70;8.98;;;16.00;99.90;;;;;;5057613;28;20051;-79
2021/08/01 02:41:53;;;;;;;12.70;8.90;;;16.00;99.90;;;;;;5107333;28;20039;-79
2021/08/01 02:44:27;;;;;;;15.75;8.98;;;16.00;99.90;;;;;;5115521;28;20125;-79
2021/08/01 02:46:53;;;;;;;13.70;9.37;;;15.90;99.90;;;;;;5097196;28;20046;-79
2021/08/01 02:49:23;;;;;;;12.65;9.23;;;16.00;99.90;;;;;;5096377;28;20277;-79
2021/08/01 02:51:52;;;;;;;16.13;9.98;;;16.00;99.90;;;;;;5097019;28;20107;-79
2021/08/01 02:54:21;;;;;;;12.57;10.38;;;16.00;99.90;;;;;;5093722;28;20043;-79
2021/08/01 02:56:48;;;;;;;14.20;9.80;;;15.90;99.90;;;;;;5085934;28;20078;-79
2021/08/01 02:59:18;;;;;;;15.75;9.95;;;15.90;99.90;;;;;;5111251;28;20490;-79
2021/08/01 03:01:45;;;;;;;15.65;10.13;;;15.90;99.90;;;;;;5097053;28;20110;-79
2021/08/01 03:04:15;;;;;;;14.65;10.48;;;15.90;99.90;;;;;;5115082;28;20042;-79
2021/08/01 03:06:42;;;;;;;14.98;10.75;;;15.90;99.90;;;;;;5083193;28;20046;-79
2021/08/01 03:09:10;;;;;;;22.88;10.43;;;15.90;99.90;;;;;;5093856;28;20043;-79
2021/08/01 03:11:36;;;;;;;18.85;10.90;;;15.90;99.90;;;;;;5102719;28;20484;-79
2021/08/01 03:14:03;;;;;;;14.50;11.32;;;15.90;99.90;;;;;;5096822;28;20054;-79
2021/08/01 03:16:29;;;;;;;15.93;10.52;;;15.90;99.90;;;;;;5114654;28;20048;-79
2021/08/01 03:18:55;;;;;;;13.98;10.73;;;15.90;99.90;;;;;;5114656;28;20116;-79
2021/08/01 03:21:21;;;;;;;16.17;11.85;;;15.90;99.90;;;;;;5114279;28;20071;-79
2021/08/01 03:23:47;;;;;;;14.80;11.32;;;16.00;99.90;;;;;;5083009;28;20399;-79
2021/08/01 03:26:13;;;;;;;16.70;12.65;;;16.00;99.90;;;;;;5079761;28;20480;-79
2021/08/01 03:28:39;;;;;;;17.60;12.43;;;15.90;99.90;;;;;;5095059;28;20070;-78
2021/08/01 03:31:05;;;;;;;16.58;12.60;;;16.00;99.90;;;;;;5114567;28;20497;-79
2021/08/01 03:33:30;;;;;;;16.98;13.10;;;15.90;99.90;;;;;;5093986;28;20483;-78
2021/08/01 03:35:56;;;;;;;19.90;13.13;;;15.90;99.90;;;;;;5096373;28;20111;-78
2021/08/01 03:38:23;;;;;;;19.42;13.52;;;16.00;99.90;;;;;;5079033;28;20047;-79
2021/08/01 03:40:51;;;;;;;16.92;13.10;;;15.90;99.90;;;;;;5099894;28;20034;-78
2021/08/01 03:43:18;;;;;;;18.05;13.07;;;16.00;99.90;;;;;;5092587;28;20043;-78
2021/08/01 03:45:43;;;;;;;18.02;13.35;;;16.00;99.90;;;;;;5061608;28;20110;-78
2021/08/01 03:48:10;;;;;;;17.58;12.95;;;15.90;99.90;;;;;;5096038;28;20466;-78
2021/08/01 03:50:36;;;;;;;19.42;13.50;;;15.90;99.90;;;;;;5062014;28;20042;-78
2021/08/01 03:53:02;;;;;;;18.33;13.95;;;15.90;99.90;;;;;;5090879;28;20126;-79
2021/08/01 03:55:28;;;;;;;16.23;13.88;;;15.90;99.90;;;;;;5081647;28;20090;-79
2021/08/01 03:57:53;;;;;;;17.50;13.70;;;15.90;99.90;;;;;;5095928;28;20115;-80
2021/08/01 04:00:19;;;;;;;18.77;14.63;;;15.90;99.90;;;;;;5095480;28;20495;-79
2021/08/01 04:02:45;;;;;;;21.83;14.75;;;15.90;99.90;;;;;;5081939;28;20074;-79
2021/08/01 04:05:11;;;;;;;21.20;14.32;;;15.90;99.90;;;;;;5085252;28;20085;-79
2021/08/01 04:07:41;;;;;;;19.27;13.90;;;15.90;99.90;;;;;;5092541;28;20484;-79
2021/08/01 04:10:07;;;;;;;21.95;15.30;;;15.90;99.90;;;;;;5086473;28;20075;-79
2021/08/01 04:12:33;;;;;;;18.83;14.65;;;15.90;99.90;;;;;;5108173;28;20027;-79
2021/08/01 04:14:59;;;;;;;20.25;14.52;;;15.90;99.90;;;;;;5089928;28;20039;-79
2021/08/01 04:17:27;;;;;;;22.35;16.25;;;15.90;99.90;;;;;;5112746;28;20480;-79
2021/08/01 04:19:56;;;;;;;21.40;15.10;;;15.90;99.90;;;;;;5078998;28;20042;-79
2021/08/01 04:22:22;;;;;;;18.65;15.32;;;15.90;99.90;;;;;;5091165;28;20615;-79
2021/08/01 04:24:48;;;;;;;19.13;15.05;;;15.90;99.90;;;;;;5092692;28;20071;-79
2021/08/01 04:27:13;;;;;;;19.17;15.27;;;15.90;99.90;;;;;;5095270;28;20119;-79
2021/08/01 04:29:41;;;;;;;18.15;14.85;;;15.90;99.90;;;;;;5081276;28;20048;-79
2021/08/01 04:32:07;;;;;;;21.27;15.60;;;15.90;99.90;;;;;;5094104;28;20038;-79
2021/08/01 04:34:40;;;;;;;19.45;14.90;;;16.00;99.90;;;;;;5075723;28;20196;-79
2021/08/01 04:37:05;;;;;;;23.38;15.45;;;16.00;99.90;;;;;;5078344;28;20475;-80
2021/08/01 04:39:32;;;;;;;18.98;14.43;;;16.00;99.90;;;;;;5094987;28;20064;-80
2021/08/01 04:41:59;;;;;;;21.13;15.98;;;16.20;99.90;;;;;;5061089;28;20047;-79
2021/08/01 04:44:24;;;;;;;21.63;15.80;;;16.00;99.90;;;;;;5074856;28;20048;-79
2021/08/01 04:46:50;;;;;;;22.02;15.70;;;16.00;99.90;;;;;;5096861;28;20079;-79
2021/08/01 04:49:16;;;;;;;18.65;14.27;;;16.00;99.90;;;;;;5112621;28;20372;-79
2021/08/01 04:51:42;;;;;;;20.88;14.40;;;16.00;99.90;;;;;;5113170;28;20530;-79
2021/08/01 04:54:08;;;;;;;21.52;15.32;;;16.10;99.90;;;;;;5064742;28;20472;-79
2021/08/01 04:56:35;;;;;;;24.52;15.52;;;16.10;99.90;;;;;;5094775;28;20044;-79
2021/08/01 04:59:03;;;;;;;19.55;14.82;;;16.10;99.90;;;;;;5095141;28;20036;-79
2021/08/01 05:01:29;;;;;;;18.02;14.90;;;16.10;99.90;;;;;;5113083;28;20084;-79
2021/08/01 05:03:55;;;;;;;19.73;15.02;;;16.10;99.90;;;;;;5099297;28;20503;-79
2021/08/01 05:06:21;;;;;;;20.20;13.68;;;16.10;99.90;;;;;;5094455;28;20467;-79
2021/08/01 05:08:46;;;;;;;19.58;15.68;;;16.10;99.90;;;;;;5103163;28;20092;-79
2021/08/01 05:11:12;;;;;;;16.63;13.32;;;16.10;99.90;;;;;;5110950;28;20104;-79
2021/08/01 05:13:40;;;;;;;19.02;13.90;;;16.10;99.90;;;;;;5112074;28;20039;-79
2021/08/01 05:16:06;;;;;;;18.48;13.27;;;16.10;99.90;;;;;;5094539;28;20145;-79
2021/08/01 05:18:32;;;;;;;16.88;12.35;;;16.20;99.90;;;;;;5094749;28;20066;-79
2021/08/01 05:20:57;;;;;;;17.17;12.57;;;16.10;99.90;;;;;;5094692;28;20027;-79
2021/08/01 05:23:26;;;;;;;17.90;11.70;;;16.20;99.90;;;;;;5091892;28;20052;-79
2021/08/01 05:25:54;;;;;;;14.20;12.40;;;16.30;99.90;;;;;;5111910;28;20192;-79
2021/08/01 05:28:20;;;;;;;17.08;12.40;;;16.20;99.90;;;;;;5063661;28;20106;-79
2021/08/01 05:30:46;;;;;;;15.32;12.50;;;16.20;99.90;;;;;;5094640;28;20505;-79
2021/08/01 05:33:12;;;;;;;14.52;11.52;;;16.20;99.90;;;;;;5088580;28;20036;-79
2021/08/01 05:35:39;;;;;;;16.65;12.60;;;16.20;99.90;;;;;;5095851;28;20104;-79
2021/08/01 05:38:05;;;;;;;18.75;12.30;;;16.20;99.90;;;;;;5098563;28;20036;-79
2021/08/01 05:40:32;;;;;;;17.02;13.00;;;16.20;99.90;;;;;;5116585;28;20048;-79
2021/08/01 05:42:59;;;;;;;17.30;12.35;;;16.30;99.90;;;;;;5114791;28;20495;-79
2021/08/01 05:45:31;;;;;;;18.25;13.13;;;16.20;99.90;;;;;;5099507;28;20115;-79
2021/08/01 05:47:57;;;;;;;16.55;12.93;;;16.20;99.90;;;;;;5098192;28;20654;-79
2021/08/01 05:50:23;;;;;;;14.27;12.07;;;16.70;99.90;;;;;;5062155;28;20040;-79
2021/08/01 05:52:49;;;;;;;15.95;12.68;;;16.30;99.90;;;;;;5084745;28;20036;-79
2021/08/01 05:55:15;;;;;;;15.40;11.82;;;16.30;99.90;;;;;;5070771;28;20069;-79
2021/08/01 05:57:41;;;;;;;17.42;12.23;;;16.30;99.90;;;;;;5108564;28;20500;-79
2021/08/01 06:00:07;;;;;;;15.82;12.57;;;16.40;99.90;;;;;;5108144;28;20039;-79
2021/08/01 06:02:33;;;;;;;16.38;13.77;;;16.40;99.90;;;;;;5116146;28;20110;-79
2021/08/01 06:04:59;;;;;;;20.20;13.73;;;16.40;99.90;;;;;;5116291;28;20506;-79
2021/08/01 06:07:25;;;;;;;19.98;13.65;;;16.40;99.90;;;;;;5115848;28;20035;-79
2021/08/01 06:09:51;;;;;;;17.75;13.73;;;16.50;99.90;;;;;;5074003;28;20047;-79
2021/08/01 06:12:16;;;;;;;25.10;16.58;;;16.50;99.90;;;;;;5102844;28;20036;-78
2021/08/01 06:14:46;;;;;;;24.67;17.52;;;16.50;99.90;;;;;;5092006;28;20035;-79
2021/08/01 06:17:12;;;;;;;26.88;17.92;;;16.60;99.90;;;;;;5108420;28;20063;-79
2021/08/01 06:19:37;;;;;;;24.17;18.08;;;16.60;99.90;;;;;;5115828;28;20056;-79
2021/08/01 06:22:03;;;;;;;29.05;19.13;;;16.60;99.90;;;;;;5097468;28;20039;-79
2021/08/01 06:24:29;;;;;;;28.83;18.08;;;16.70;99.90;;;;;;5097471;28;20473;-79
2021/08/01 06:26:55;;;;;;;29.08;19.77;;;16.70;99.90;;;;;;5086352;28;20162;-79
2021/08/01 06:29:22;;;;;;;26.70;19.67;;;16.70;99.90;;;;;;5109339;28;20084;-79
2021/08/01 06:31:48;;;;;;;30.73;21.02;;;16.70;99.90;;;;;;5075596;28;20034;-79
2021/08/01 06:34:14;;;;;;;28.73;21.63;;;16.70;99.90;;;;;;5080787;28;20036;-79
2021/08/01 06:36:40;;;;;;;31.75;21.35;;;16.70;99.90;;;;;;5113559;28;20047;-79
2021/08/01 06:39:09;;;;;;;32.25;22.73;;;16.70;99.90;;;;;;5097006;28;20036;-79
2021/08/01 06:41:36;;;;;;;33.10;22.33;;;16.70;99.90;;;;;;5097403;28;20040;-78
2021/08/01 06:44:02;;;;;;;35.78;23.05;;;16.70;99.90;;;;;;5115363;28;20031;-76
2021/08/01 06:46:29;;;;;;;32.33;22.15;;;16.70;99.90;;;;;;5085171;28;20040;-76
2021/08/01 06:48:55;;;;;;;28.75;20.73;;;16.70;99.90;;;;;;5087644;28;20054;-83
2021/08/01 06:51:21;;;;;;;27.00;18.95;;;16.70;99.90;;;;;;5080169;28;20055;-82
2021/08/01 06:53:47;;;;;;;21.88;16.98;;;16.70;99.90;;;;;;5080286;28;20039;-79
2021/08/01 06:56:13;;;;;;;26.10;15.75;;;16.70;99.90;;;;;;5097166;28;20036;-80
2021/08/01 06:58:50;;;;;;;25.95;17.17;;;16.60;99.90;;;;;;5115433;28;20035;-85
2021/08/01 07:01:22;;;;;;;21.02;15.40;;;16.70;99.90;;;;;;5103163;28;20031;-83
2021/08/01 07:03:51;;;;;;;23.08;16.33;;;16.90;99.90;;;;;;5090643;28;20036;-84
2021/08/01 07:06:17;;;;;;;20.83;15.30;;;16.70;99.90;;;;;;5089854;28;20391;-81
2021/08/01 07:08:43;;;;;;;24.00;16.33;;;16.70;99.90;;;;;;5114028;28;20085;-78
2021/08/01 07:11:08;;;;;;;25.52;17.60;;;16.70;99.90;;;;;;5112201;28;20028;-79
2021/08/01 07:13:36;;;;;;;24.13;17.50;;;16.70;99.90;;;;;;5078257;28;20055;-78
2021/08/01 07:16:03;;;;;;;24.58;17.98;;;16.70;99.90;;;;;;5094070;28;20086;-78
2021/08/01 07:18:37;;;;;;;27.73;17.85;;;16.70;99.90;;;;;;5095258;28;20034;-79
2021/08/01 07:21:02;;;;;;;23.73;16.92;;;16.90;99.90;;;;;;5093758;28;20031;-79
2021/08/01 07:23:28;;;;;;;22.45;16.88;;;16.70;99.90;;;;;;5078513;28;20100;-77
2021/08/01 07:25:54;;;;;;;20.73;15.15;;;16.80;99.90;;;;;;5078263;28;20039;-78
2021/08/01 07:28:23;;;;;;;22.15;15.90;;;16.90;99.90;;;;;;5062629;28;20097;-81
2021/08/01 07:30:51;;;;;;;17.92;14.50;;;16.90;99.90;;;;;;5115083;28;20489;-78
2021/08/01 07:33:19;;;;;;;19.17;13.95;;;17.00;99.90;;;;;;5085150;28;20399;-80
2021/08/01 07:35:47;;;;;;;19.30;14.70;;;17.00;99.90;;;;;;5061895;28;20043;-78
2021/08/01 07:38:13;;;;;;;18.38;13.65;;;17.10;99.90;;;;;;5072765;28;20123;-80
2021/08/01 07:40:39;;;;;;;15.07;12.00;;;17.10;99.90;;;;;;5114334;28;20080;-79
2021/08/01 07:43:06;;;;;;;14.77;10.27;;;17.20;99.90;;;;;;5079596;28;20063;-79
2021/08/01 07:45:34;;;;;;;11.02;8.57;;;17.20;99.90;;;;;;5096022;28;20039;-78
2021/08/01 07:48:03;;;;;;;5.90;5.00;;;17.30;99.90;;;;;;5079911;28;20036;-79
2021/08/01 07:50:29;;;;;;;5.10;4.53;;;17.50;99.90;;;;;;5114265;28;20467;-78
2021/08/01 07:52:55;;;;;;;6.45;3.65;;;17.40;99.90;;;;;;5095185;28;20046;-78
2021/08/01 07:55:21;;;;;;;3.22;2.60;;;17.40;99.90;;;;;;5095986;28;20035;-79
2021/08/01 07:57:49;;;;;;;5.18;2.30;;;17.40;99.90;;;;;;5078176;28;20480;-81
2021/08/01 08:00:21;;;;;;;3.67;2.85;;;17.40;99.90;;;;;;5096437;28;20441;-82
2021/08/01 08:02:49;;;;;;;4.28;2.80;;;17.30;99.90;;;;;;5112173;28;20118;-82
2021/08/01 08:05:15;;;;;;;4.88;2.90;;;17.20;99.90;;;;;;5098966;28;20499;-77
2021/08/01 08:07:41;;;;;;;4.65;3.20;;;17.10;99.90;;;;;;5092455;28;20056;-77
2021/08/01 08:10:13;;;;;;;4.07;3.00;;;17.00;99.90;;;;;;5090532;28;20051;-78
2021/08/01 08:12:39;;;;;;;11.30;4.53;;;16.90;99.90;;;;;;5093885;28;20031;-77
2021/08/01 08:15:07;;;;;;;6.85;3.88;;;16.80;99.90;;;;;;5117811;28;20373;-81
2021/08/01 08:17:33;;;;;;;8.45;3.28;;;16.70;99.90;;;;;;5074913;28;20072;-82
2021/08/01 08:20:04;;;;;;;7.40;2.75;;;16.60;99.90;;;;;;5093325;28;20051;-81
2021/08/01 08:22:30;;;;;;;6.43;3.20;;;16.50;99.90;;;;;;5085676;28;20357;-83
2021/08/01 08:24:58;;;;;;;4.88;2.88;;;16.50;99.90;;;;;;5062450;28;20142;-83
2021/08/01 08:27:24;;;;;;;17.70;2.83;;;16.50;99.90;;;;;;5073120;28;20111;-82
2021/08/01 08:29:50;;;;;;;5.78;2.90;;;16.40;99.90;;;;;;5095215;28;20044;-83
2021/08/01 08:32:16;;;;;;;4.82;2.70;;;16.30;99.90;;;;;;5100725;28;20039;-86
2021/08/01 08:34:44;;;;;;;4.65;3.00;;;16.30;99.90;;;;;;5093943;28;20128;-83
2021/08/01 08:37:10;;;;;;;3.72;2.90;;;16.20;99.90;;;;;;5073995;28;20071;-83
2021/08/01 08:39:39;;;;;;;5.00;3.08;;;16.20;99.90;;;;;;5095139;28;20034;-83
2021/08/01 08:42:05;;;;;;;4.63;2.78;;;16.20;99.90;;;;;;5105488;28;20036;-81
2021/08/01 08:44:33;;;;;;;4.70;2.42;;;16.10;99.90;;;;;;5052170;28;20052;-81
2021/08/01 08:46:59;;;;;;;4.60;2.50;;;16.10;99.90;;;;;;5085132;28;20117;-81
2021/08/01 08:49:28;;;;;;;6.35;2.92;;;16.10;99.90;;;;;;5100528;28;20035;-81
2021/08/01 08:51:54;;;;;;;8.48;2.72;;;16.20;99.90;;;;;;5113090;28;20065;-81
2021/08/01 08:54:30;;;;;;;3.47;2.28;;;16.20;99.90;;;;;;5075259;28;20089;-81
2021/08/01 08:56:59;;;;;;;5.70;2.20;;;16.20;99.90;;;;;;5086997;28;20135;-80
2021/08/01 08:59:26;;;;;;;3.97;2.42;;;16.20;99.90;;;;;;5099993;28;20059;-78
2021/08/01 09:01:52;;;;;;;5.63;2.70;;;16.20;99.90;;;;;;5108370;28;20067;-78
2021/08/01 09:04:18;;;;;;;5.38;2.65;;;16.20;99.90;;;;;;5110588;28;20503;-74
2021/08/01 09:06:50;;;;;;;3.75;2.65;;;16.20;99.90;;;;;;5094891;28;20453;-74
2021/08/01 09:09:16;;;;;;;4.97;2.63;;;16.30;99.90;;;;;;5095204;28;20039;-73
2021/08/01 09:11:42;;;;;;;7.20;2.80;;;16.20;99.90;;;;;;5101454;28;20043;-73
2021/08/01 09:14:21;;;;;;;5.13;2.50;;;16.80;99.90;;;;;;5101261;28;20449;-73
2021/08/01 09:16:51;;;;;;;4.53;2.80;;;16.40;99.90;;;;;;5101776;28;20047;-73
2021/08/01 09:19:42;;;;;;;5.03;2.33;;;16.50;99.90;;;;;;5100718;28;20032;-73
2021/08/01 09:22:18;;;;;;;4.93;2.67;;;16.40;99.90;;;;;;5119384;28;20040;-73
2021/08/01 09:24:45;;;;;;;4.72;2.17;;;16.40;99.90;;;;;;5105049;28;20404;-73
2021/08/01 09:27:32;;;;;;;5.57;1.60;;;16.40;99.90;;;;;;5119372;28;20395;-73
2021/08/01 09:29:59;;;;;;;8.05;1.50;;;16.30;99.90;;;;;;5119274;28;20040;-73
2021/08/01 09:32:25;;;;;;;5.47;1.60;;;16.20;99.90;;;;;;5101445;28;20108;-73
2021/08/01 09:34:54;;;;;;;4.28;1.48;;;16.30;99.90;;;;;;5119458;28;20046;-73
2021/08/01 09:37:34;;;;;;;3.58;1.40;;;16.20;99.90;;;;;;5096203;28;20034;-73
2021/08/01 09:40:18;;;;;;;3.47;1.50;;;16.30;99.90;;;;;;5101159;28;20040;-73
2021/08/01 09:42:46;;;;;;;5.35;1.70;;;16.30;99.90;;;;;;5101134;28;20043;-73
2021/08/01 09:45:16;;;;;;;2.40;1.35;;;16.50;99.90;;;;;;5119423;28;20039;-73
2021/08/01 09:47:43;;;;;;;8.40;1.65;;;16.60;99.90;;;;;;5119372;28;20368;-73
2021/08/01 09:50:09;;;;;;;5.00;1.38;;;16.70;99.90;;;;;;5119266;28;20047;-73
2021/08/01 09:52:35;;;;;;;3.92;1.50;;;16.80;99.90;;;;;;5119123;28;20111;-73
2021/08/01 09:55:02;;;;;;;5.68;3.83;;;16.90;99.90;;;;;;5100091;28;20122;-73
2021/08/01 09:57:27;;;;;;;5.78;2.53;;;17.00;99.90;;;;;;5116351;28;20487;-73
2021/08/01 10:00:09;;;;;;;3.08;1.45;;;17.00;99.90;;;;;;5108182;28;20035;-73
2021/08/01 10:02:40;;;;;;;6.45;1.70;;;17.00;99.90;;;;;;5119036;28;20039;-73
2021/08/01 10:05:16;;;;;;;3.08;1.60;;;17.00;99.90;;;;;;5100887;28;20040;-73
2021/08/01 10:07:45;;;;;;;5.03;1.20;;;17.10;99.90;;;;;;5100595;28;20035;-73
2021/08/01 10:10:18;;;;;;;5.13;1.30;;;17.10;99.90;;;;;;5119190;27;20047;-73
2021/08/01 10:12:45;;;;;;;1.95;1.00;;;17.10;99.90;;;;;;5117906;28;20035;-73
2021/08/01 10:15:11;;;;;;;1.90;1.10;;;17.10;99.90;;;;;;5119124;28;20432;-73
2021/08/01 10:17:40;;;;;;;2.72;1.00;;;17.10;99.90;;;;;;5101090;28;20035;-73
2021/08/01 10:20:07;;;;;;;3.95;1.33;;;17.10;99.90;;;;;;5119293;28;20090;-73
2021/08/01 10:22:39;;;;;;;2.58;1.20;;;17.10;99.90;;;;;;5096863;28;20051;-73
2021/08/01 10:25:17;;;;;;;3.33;1.20;;;17.10;99.90;;;;;;5081118;28;20069;-73
2021/08/01 10:27:46;;;;;;;3.80;1.38;;;17.20;99.90;;;;;;5093854;28;20043;-73
2021/08/01 10:30:18;;;;;;;2.30;1.23;;;17.30;99.90;;;;;;5084367;28;20047;-73
2021/08/01 10:32:45;;;;;;;4.47;2.78;;;17.30;99.90;;;;;;5115643;28;20027;-73
2021/08/01 10:35:15;;;;;;;2.72;1.20;;;17.40;99.90;;;;;;5097275;28;20036;-73
2021/08/01 10:37:44;;;;;;;3.92;1.27;;;17.50;99.90;;;;;;5097398;28;20057;-73
2021/08/01 10:40:23;;;;;;;2.90;1.30;;;17.60;99.90;;;;;;5115317;28;20398;-73
2021/08/01 10:42:52;;;;;;;3.75;1.27;;;17.60;99.90;;;;;;5115510;28;20059;-73
2021/08/01 10:45:19;;;;;;;5.05;1.40;;;17.60;99.90;;;;;;5112633;28;20047;-73
2021/08/01 10:47:48;;;;;;;1.83;1.10;;;17.60;99.90;;;;;;5115426;28;20047;-73
2021/08/01 10:50:21;;;;;;;3.70;1.10;;;17.60;99.90;;;;;;5115439;28;20109;-73
2021/08/01 10:52:47;;;;;;;2.53;1.08;;;17.70;99.90;;;;;;5096891;28;20036;-73
2021/08/01 10:55:21;;;;;;;5.93;1.55;;;17.60;99.90;;;;;;5089786;28;20077;-73
2021/08/01 10:58:08;;;;;;;4.35;1.40;;;17.50;99.90;;;;;;5096969;28;20135;-73
2021/08/01 11:00:54;;;;;;;4.75;1.30;;;17.50;99.90;;;;;;5087645;28;20040;-73
2021/08/01 11:03:20;;;;;;;3.13;1.50;;;17.50;99.90;;;;;;5115138;28;20102;-73
2021/08/01 11:05:46;;;;;;;5.60;1.40;;;17.60;99.90;;;;;;5096869;28;20442;-73
2021/08/01 11:08:13;;;;;;;4.50;1.50;;;17.70;99.90;;;;;;5114983;28;20118;-73
2021/08/01 11:10:41;;;;;;;3.95;1.77;;;17.70;99.90;;;;;;5115478;28;20401;-73
2021/08/01 11:13:30;;;;;;;3.03;1.50;;;17.60;99.90;;;;;;5096667;28;20032;-74
2021/08/01 11:15:57;;;;;;;3.88;1.10;;;17.70;99.90;;;;;;5101375;28;20058;-74
2021/08/01 11:18:37;;;;;;;6.40;3.25;;;17.80;99.90;;;;;;5113874;28;20072;-80
2021/08/01 11:21:04;;;;;;;8.90;4.05;;;18.00;99.90;;;;;;5114677;28;20042;-80
2021/08/01 11:23:45;;;;;;;3.90;1.40;;;18.10;99.90;;;;;;5096769;28;20435;-80
2021/08/01 11:26:13;;;;;;;3.38;1.50;;;18.10;99.90;;;;;;5114665;28;20051;-80
2021/08/01 11:28:41;;;;;;;3.58;1.80;;;18.10;99.90;;;;;;5114618;28;20525;-80
2021/08/01 11:31:25;;;;;;;7.57;1.90;;;18.00;99.90;;;;;;5114489;28;20044;-81
2021/08/01 11:33:53;;;;;;;4.82;2.15;;;17.90;99.90;;;;;;5095321;28;20163;-81
2021/08/01 11:36:21;;;;;;;11.15;2.75;;;17.90;99.90;;;;;;5114542;28;20039;-80
2021/08/01 11:38:56;;;;;;;5.85;2.08;;;17.80;99.90;;;;;;5114397;28;20097;-74
2021/08/01 11:41:27;;;;;;;5.50;1.80;;;17.80;99.90;;;;;;5096696;28;20048;-74
2021/08/01 11:43:59;;;;;;;4.40;2.60;;;17.90;99.90;;;;;;5114202;28;20511;-73
2021/08/01 11:46:26;;;;;;;5.93;1.70;;;17.90;99.90;;;;;;5114177;28;20035;-74
2021/08/01 11:49:03;;;;;;;6.68;2.20;;;18.00;99.90;;;;;;5094969;28;20537;-73
2021/08/01 11:51:32;;;;;;;5.38;2.53;;;18.10;99.90;;;;;;5114179;28;20118;-73
2021/08/01 11:53:59;;;;;;;5.90;1.50;;;18.10;99.90;;;;;;5095933;28;20092;-73
2021/08/01 11:56:28;;;;;;;4.78;1.70;;;18.10;99.90;;;;;;5114024;28;20042;-74
2021/08/01 11:58:55;;;;;;;3.00;1.55;;;18.00;99.90;;;;;;5095674;28;20552;-73
2021/08/01 12:01:23;;;;;;;4.85;2.10;;;18.00;99.90;;;;;;5079101;28;20399;-74
2021/08/01 12:03:50;;;;;;;5.47;1.80;;;17.90;99.90;;;;;;5095784;28;20074;-74
2021/08/01 12:06:35;;;;;;;6.72;1.45;;;17.90;99.90;;;;;;5094749;28;20115;-74
2021/08/01 12:09:23;;;;;;;7.55;2.40;;;17.80;99.90;;;;;;5095573;28;20073;-74
2021/08/01 12:11:57;;;;;;;2.17;1.30;;;17.90;99.90;;;;;;5113836;28;20544;-74
2021/08/01 12:14:28;;;;;;;4.60;1.65;;;17.90;99.90;;;;;;5113671;28;20490;-74
2021/08/01 12:16:58;;;;;;;5.20;1.17;;;17.90;99.90;;;;;;5095701;28;20043;-74
2021/08/01 12:19:49;;;;;;;4.45;1.90;;;17.90;99.90;;;;;;5095438;28;20035;-74
2021/08/01 12:22:17;;;;;;;3.90;1.77;;;17.80;99.90;;;;;;5082525;28;20081;-74
2021/08/01 12:24:51;;;;;;;3.30;1.70;;;17.80;99.90;;;;;;5091886;28;20066;-74
2021/08/01 12:27:28;;;;;;;4.28;2.22;;;17.90;99.90;;;;;;5070003;28;20472;-74
2021/08/01 12:30:02;;;;;;;8.55;2.20;;;17.90;99.90;;;;;;5113398;28;20035;-74
2021/08/01 12:32:32;;;;;;;4.38;1.70;;;18.00;99.90;;;;;;5082492;28;20050;-74
2021/08/01 12:35:29;;;;;;;7.00;2.20;;;18.00;99.90;;;;;;5113305;28;20039;-73
2021/08/01 12:37:59;;;;;;;4.03;1.85;;;18.10;99.90;;;;;;5102266;28;20403;-73
2021/08/01 12:40:33;;;;;;;3.67;1.92;;;18.20;99.90;;;;;;5095012;28;20058;-74
2021/08/01 12:43:08;;;;;;;6.28;2.03;;;18.40;99.90;;;;;;5113272;28;20040;-73
2021/08/01 12:45:42;;;;;;;4.32;1.70;;;18.40;99.90;;;;;;5112410;28;20515;-73